Wellesbourne Mountford, United Kingdom
Current Conditions -  °F | °C
As of 4:20 PM on Thursday 18 Dec 2014 (Local Time) from EGBE Reporting Station
Broken Clouds Broken Clouds  
Wind Chill: 13°   Ceiling: 2300
Heat Index: 13°   Visibility: 6mi
Dew Point: 11°   Wind: 18mph
Humidity: 88%   Direction: 220°SW
Pressure: 29.71"   Gusts: NA
Location:  52.18°N, 1.58°W
Report Text: EGBE 181620Z 22016KT 9999 FEW018 BKN023 13/11 Q1006
Loading
Personal Weather Stations






























Interactive Weather Map New forecast layout! Learn more

10-Day Weather Forecast

Advertisements
Track Severe Weather on mobile